Pagina principale
METAR-TAF:

METAR-TAF

Aeroporti :

Aeroporto di Roma-Urbe

Roma, Italia

latitudine: 41-57N, longitudine: 012-30E, altezza: 18 m

Osservazione

Il bollettino è stato emesso 55 minuti fa, alle 10:50 UTC
Vento 5 kt da nord, variando fra nord/nord-ovest e nord/nord-est
Temperature 9°C
Umidità 37%
Pressione 1030 hPa
Visibilità 10 km o più
nessuna nube inferiore a 1500 m e nessun cumulonembo

METAR: LIRU 091050Z 36005KT 330V030 CAVOK 09/M05 Q1030

Ora: 12:45 (11:45 UTC)

Previsione

Il bollettino è stato emesso 45 minuti fa, alle 11:00 UTC
Previsione valida dal 09 alle 12 UTC al 09 alle 21 UTC
Vento 6 kt da nord/nord-est
Visibilità 10 km o più
nessuna nube inferiore a 1500 m e nessun cumulonembo

TAF: LIRU 091100Z 0912/0921 02006KT CAVOK

Osservazioni e previsioni meteorologiche di più di 4000 aeroporti (messaggi METAR e TAF).

Le stazioni disponibili sono rappresentate dai dischi gialli e rossi sulla carta.

Puntare il mouse per vedere il nome della stazione.

Clicca sopra per visualizzare le osservazioni e previsioni meteorologiche.

Per cambiare la mappa : fare clic sui pulsanti verdi con una croce nera per ingrandire, il pulsante verde con un trattino per diminuire, o sulla freccia verde per le mappe adiacenti.


METAR-TAF: